Hovedside
METAR-TAF:

METAR-TAF

Lufthavner :

Pskov, Russland

breddegrad: 57-47-06N, lengdegrad: 028-23-54E, høyde over havet: 47 m

Gjeldene værobservasjon

Denne rapporten ble laget for 43 minutter siden, klokken 15:00 UTC
Vind 8 kt fra Vest, skiftende mellom Vest-sørvest og Nordvest
Temperatur 16°C
Luftfuktighet 27%
Trykk 1031 hPa
Sikt: 9000 m

METAR: ULOO 181500Z AUTO 28004MPS 250V310 9000 // NCD 16/M03 Q1031 RMK QFE769

Tid: 18:43 (15:43 UTC)

Varsel

Denne rapporten ble laget for 1 time og 44 minutter siden, klokken 13:59 UTC
Varsel gyldig fra 18. klokken 15 UTC til 18. klokken 24 UTC
Vind 8 kt fra Nord-nordvest
Sikt 10 km eller mer
Spredte skyer i en høyde av 3000 ft
Midlertidig
fra 18. klokken 15 UTC til 18. klokken 18 UTC
Vind 8 kt fra Nordøst
Blir
fra 18. klokken 20 UTC til 18. klokken 22 UTC
Vind 4 kt fra Nord-nordøst
Sikt: 4000 m
dis

TAF: ULOO 181359Z 1815/1824 34004MPS 9999 SCT030 TEMPO 1815/1818 04004MPS BECMG 1820/1822 02002MPS 4000 BR

Værobservasjoner og værvarsel for over 4000 flyplasser (METAR- og TAF-rapporter).

Tilgjengelige stasjoner er representert av de røde og gule prikkene på kartet.

Hold musepekeren over prikken for å se navnet på stasjonen.

Klikk så for å se værobservasjoner og -varsler.

For å forandre kartet kan du klikke på den grønne knappen med svart kryss for å zoome inn, på den grønne knappen med strek for å zoome ut, eller på de grønne pilene for å se tilstøtende kart.


METAR-TAF: